Presque Isle, Wisconsin
Current Conditions -  °F | °C
As of 11:15 AM on Saturday 25 Oct 2014 (Local Time) from KD25 Reporting Station
Clear Clear  
Wind Chill: 52°   Ceiling: Unl
Heat Index: 52°   Visibility: 10mi
Dew Point: 32°   Wind: 18mph
Humidity: 47%   Direction: 300°WNW
Pressure: 29.86"   Gusts: 30mph
Location:  46.25°N, 89.73°W
Report Text: KD25 251615Z AUTO 30016G26KT 10SM CLR 11/00 A2986 RMK AO2 T01110001
Loading
Personal Weather Stations






























Interactive Weather Map
Tropical Storm Tracking
New forecast layout! Learn more

10-Day Weather Forecast

Advertisements
Track Severe Weather on mobile